createdAt,value
2022-11-17T00:00:43.667Z,99171.23
2022-11-17T00:03:15.359Z,99168.65
2022-11-17T00:05:45.071Z,99173.79
2022-11-17T00:08:13.627Z,99173.31
2022-11-17T00:10:41.895Z,99177.08
2022-11-17T00:13:29.424Z,99180.97
2022-11-17T00:15:57.600Z,99180.73
2022-11-17T00:18:44.550Z,99179.12
2022-11-17T00:21:19.575Z,99169.99
2022-11-17T00:23:48.456Z,99167.55
2022-11-17T00:26:19.610Z,99164.46
2022-11-17T00:28:52.206Z,99163.23
2022-11-17T00:31:39.708Z,99162.95
2022-11-17T00:34:11.240Z,99167.15
2022-11-17T00:36:45.622Z,99165.28
2022-11-17T00:39:15.294Z,99171.64
2022-11-17T00:41:50.026Z,99174.31
2022-11-17T00:44:20.138Z,99173.30
2022-11-17T00:46:56.012Z,99175.41
2022-11-17T00:49:27.431Z,99161.20
2022-11-17T00:51:56.111Z,99176.50
2022-11-17T00:54:24.791Z,99175.27
2022-11-17T00:56:53.082Z,99173.64
2022-11-17T00:59:21.666Z,99173.29
2022-11-17T01:01:49.847Z,99172.27
2022-11-17T01:04:18.205Z,99172.58
2022-11-17T01:06:48.541Z,99169.16
2022-11-17T01:09:22.306Z,99172.98
2022-11-17T01:11:52.516Z,99169.58
2022-11-17T01:14:27.305Z,99169.89
2022-11-17T01:17:01.209Z,99167.89
2022-11-17T01:19:29.898Z,99166.31
2022-11-17T01:21:57.972Z,99152.59
2022-11-17T01:24:26.071Z,99157.35
2022-11-17T01:26:54.105Z,99157.58
2022-11-17T01:29:22.272Z,99155.45
2022-11-17T01:31:52.388Z,99157.27
2022-11-17T01:34:20.452Z,99158.23
2022-11-17T01:37:07.359Z,99156.93
2022-11-17T01:39:35.410Z,99157.15
2022-11-17T01:42:12.021Z,99157.66
2022-11-17T01:44:57.205Z,99149.01
2022-11-17T01:47:44.313Z,99151.81
2022-11-17T01:50:39.398Z,99146.30
2022-11-17T01:53:13.329Z,99148.80
2022-11-17T01:55:47.252Z,99143.28
2022-11-17T01:58:21.382Z,99144.15
2022-11-17T02:00:49.635Z,99145.42
2022-11-17T02:03:18.245Z,99141.61
2022-11-17T02:06:00.830Z,99141.95
2022-11-17T02:08:32.082Z,99135.95
2022-11-17T02:11:02.942Z,99140.98
2022-11-17T02:13:32.049Z,99141.83
2022-11-17T02:16:01.240Z,99146.08
2022-11-17T02:18:29.380Z,99148.02
2022-11-17T02:21:00.995Z,99140.36
2022-11-17T02:23:47.842Z,99130.28
2022-11-17T02:26:37.616Z,99130.83
2022-11-17T02:29:24.235Z,99130.92
2022-11-17T02:32:07.819Z,99128.29
2022-11-17T02:34:46.077Z,99130.19
2022-11-17T02:37:21.623Z,99127.87
2022-11-17T02:40:03.358Z,99124.64
2022-11-17T02:42:59.235Z,99123.95
2022-11-17T02:45:42.353Z,99125.25
2022-11-17T02:48:19.867Z,99124.66
2022-11-17T02:50:49.865Z,99121.20
2022-11-17T02:53:19.072Z,99119.42
2022-11-17T02:55:52.244Z,99122.83
2022-11-17T02:58:21.779Z,99122.27
2022-11-17T03:01:22.181Z,99125.59
2022-11-17T03:03:53.158Z,99127.96
2022-11-17T03:06:27.301Z,99124.65
2022-11-17T03:09:13.384Z,99126.61
2022-11-17T03:12:00.116Z,99125.46
2022-11-17T03:14:39.734Z,99124.52
2022-11-17T03:17:19.326Z,99127.06
2022-11-17T03:19:53.543Z,99129.53
2022-11-17T03:22:33.297Z,99133.05
2022-11-17T03:25:05.363Z,99132.14
2022-11-17T03:27:40.967Z,99136.27
2022-11-17T03:30:10.553Z,99131.54
2022-11-17T03:32:46.989Z,99134.17
2022-11-17T03:35:20.581Z,99138.88
2022-11-17T03:37:53.988Z,99143.36
2022-11-17T03:40:26.567Z,99142.53
2022-11-17T03:42:59.131Z,99137.27
2022-11-17T03:45:35.912Z,99137.92
2022-11-17T03:48:11.563Z,99143.39
2022-11-17T03:51:07.386Z,99138.34
2022-11-17T03:53:36.755Z,99143.86
2022-11-17T03:56:23.007Z,99145.33
2022-11-17T03:58:58.216Z,99142.31
2022-11-17T04:01:29.086Z,99136.05
2022-11-17T04:03:57.280Z,99135.45
2022-11-17T04:06:25.470Z,99134.34
2022-11-17T04:08:53.694Z,99133.52
2022-11-17T04:11:40.338Z,99132.73
2022-11-17T04:14:28.220Z,99132.13
2022-11-17T04:16:56.352Z,99135.81
2022-11-17T04:19:24.525Z,99133.08
2022-11-17T04:21:52.596Z,99136.52
2022-11-17T04:24:20.877Z,99132.83
2022-11-17T04:27:07.885Z,99129.94
2022-11-17T04:29:36.054Z,99125.69
2022-11-17T04:32:04.958Z,99126.41
2022-11-17T04:34:33.230Z,99125.88
2022-11-17T04:37:06.929Z,99123.95
2022-11-17T04:39:39.103Z,99122.15
2022-11-17T04:42:07.596Z,99119.16
2022-11-17T04:44:35.972Z,99119.17
2022-11-17T04:47:04.552Z,99121.54
2022-11-17T04:49:33.640Z,99125.21
2022-11-17T04:52:02.128Z,99127.42
2022-11-17T04:54:30.629Z,99124.02
2022-11-17T04:56:59.097Z,99124.58
2022-11-17T04:59:27.468Z,99125.39
2022-11-17T05:01:57.023Z,99123.06
2022-11-17T05:04:45.933Z,99124.41
2022-11-17T05:07:14.424Z,99126.65
2022-11-17T05:09:42.985Z,99130.02
2022-11-17T05:12:30.116Z,99126.66
2022-11-17T05:14:58.516Z,99130.10
2022-11-17T05:17:26.729Z,99136.02
2022-11-17T05:19:56.593Z,99143.42
2022-11-17T05:22:44.307Z,99144.48
2022-11-17T05:25:13.414Z,99150.08
2022-11-17T05:27:41.755Z,99149.80
2022-11-17T05:30:10.888Z,99151.11
2022-11-17T05:32:39.069Z,99146.52
2022-11-17T05:35:07.700Z,99144.41
2022-11-17T05:37:36.903Z,99141.33
2022-11-17T05:40:06.325Z,99139.23
2022-11-17T05:42:36.049Z,99138.09
2022-11-17T05:45:04.976Z,99133.45
2022-11-17T05:47:33.457Z,99132.02
2022-11-17T05:50:01.703Z,99125.27
2022-11-17T05:52:30.190Z,99124.30
2022-11-17T05:54:58.352Z,99125.77
2022-11-17T05:57:32.088Z,99123.88
2022-11-17T06:00:04.793Z,99124.01
2022-11-17T06:02:47.341Z,99129.70
2022-11-17T06:05:20.219Z,99126.61
2022-11-17T06:07:49.101Z,99130.41
2022-11-17T06:10:18.198Z,99131.17
2022-11-17T06:12:46.687Z,99136.60
2022-11-17T06:15:15.175Z,99132.55
2022-11-17T06:18:11.271Z,99133.98
2022-11-17T06:20:45.197Z,99133.75
2022-11-17T06:23:15.628Z,99132.20
2022-11-17T06:25:44.828Z,99134.92
2022-11-17T06:28:17.547Z,99137.54
2022-11-17T06:30:49.738Z,99146.41
2022-11-17T06:33:21.688Z,99148.69
2022-11-17T06:35:50.348Z,99142.59
2022-11-17T06:38:18.537Z,99153.55
2022-11-17T06:40:46.933Z,99152.81
2022-11-17T06:43:15.398Z,99149.48
2022-11-17T06:45:46.306Z,99147.02
2022-11-17T06:48:16.974Z,99150.80
2022-11-17T06:50:48.209Z,99150.63
2022-11-17T06:53:16.570Z,99138.46
2022-11-17T06:55:51.504Z,99148.52
2022-11-17T06:58:19.833Z,99152.64
2022-11-17T07:00:48.923Z,99151.16
2022-11-17T07:03:17.465Z,99150.33
2022-11-17T07:05:46.785Z,99141.38
2022-11-17T07:08:15.965Z,99150.72
2022-11-17T07:10:49.339Z,99157.39
2022-11-17T07:13:22.829Z,99159.56
2022-11-17T07:15:52.556Z,99162.27
2022-11-17T07:18:21.836Z,99159.70
2022-11-17T07:20:50.333Z,99157.89
2022-11-17T07:23:18.813Z,99154.75
2022-11-17T07:25:47.502Z,99158.33
2022-11-17T07:28:16.186Z,99163.45
2022-11-17T07:30:44.759Z,99164.01
2022-11-17T07:33:14.362Z,99154.30
2022-11-17T07:35:43.054Z,99151.21
2022-11-17T07:38:11.470Z,99128.29
2022-11-17T07:40:40.830Z,99147.27
2022-11-17T07:43:09.676Z,99149.45
2022-11-17T07:45:40.138Z,99152.02
2022-11-17T07:48:08.943Z,99153.34
2022-11-17T07:50:40.224Z,99155.13
2022-11-17T07:53:10.614Z,99151.65
2022-11-17T07:55:41.056Z,99148.09
2022-11-17T07:58:10.558Z,99149.11
2022-11-17T08:00:40.237Z,99145.55
2022-11-17T08:03:10.241Z,99126.30
2022-11-17T08:05:43.794Z,99147.48
2022-11-17T08:08:14.016Z,99147.58
2022-11-17T08:10:43.312Z,99145.42
2022-11-17T08:13:14.684Z,99148.30
2022-11-17T08:15:43.435Z,99150.00
2022-11-17T08:18:12.553Z,99153.84
2022-11-17T08:20:41.221Z,99148.36
2022-11-17T08:23:09.587Z,99148.61
2022-11-17T08:25:38.581Z,99147.73
2022-11-17T08:28:07.654Z,99148.94
2022-11-17T08:30:36.675Z,99146.44
2022-11-17T08:33:06.093Z,99149.25
2022-11-17T08:35:37.727Z,99148.05
2022-11-17T08:38:07.149Z,99151.91
2022-11-17T08:40:35.616Z,99153.89
2022-11-17T08:43:05.330Z,99157.69
2022-11-17T08:45:39.156Z,99147.14
2022-11-17T08:48:08.406Z,99157.73
2022-11-17T08:51:12.938Z,99158.73
2022-11-17T08:54:35.319Z,99161.02
2022-11-17T09:00:25.806Z,99156.80
2022-11-17T09:04:03.421Z,99159.41
2022-11-17T09:06:38.238Z,99155.82
2022-11-17T09:09:07.894Z,99153.36
2022-11-17T09:11:36.619Z,99156.87
2022-11-17T09:14:08.071Z,99157.61
2022-11-17T09:16:37.842Z,99158.29
2022-11-17T09:19:07.023Z,99162.30
2022-11-17T09:21:35.632Z,99160.23
2022-11-17T09:24:04.503Z,99160.75
2022-11-17T09:26:41.177Z,99159.04
2022-11-17T09:29:09.944Z,99159.22
2022-11-17T09:31:38.735Z,99154.34
2022-11-17T09:34:08.257Z,99158.91
2022-11-17T09:36:37.419Z,99161.52
2022-11-17T09:39:06.084Z,99165.25
2022-11-17T09:41:39.208Z,99168.34
2022-11-17T09:44:43.319Z,99167.79
2022-11-17T09:47:30.555Z,99165.53
2022-11-17T09:50:22.618Z,99171.35
2022-11-17T09:52:58.100Z,99169.89
2022-11-17T09:55:45.795Z,99167.64
2022-11-17T09:58:34.132Z,99164.05
2022-11-17T10:01:03.262Z,99164.02
2022-11-17T10:03:44.921Z,99165.72
2022-11-17T10:06:20.351Z,99159.89
2022-11-17T10:09:25.343Z,99159.65
2022-11-17T10:12:08.339Z,99157.24
2022-11-17T10:14:40.280Z,99151.77
2022-11-17T10:17:12.438Z,99157.25
2022-11-17T10:19:44.063Z,99155.48
2022-11-17T10:22:20.362Z,99150.40
2022-11-17T10:24:55.055Z,99147.52
2022-11-17T10:27:24.986Z,99144.40
2022-11-17T10:30:07.520Z,99149.36
2022-11-17T10:32:48.371Z,99151.25
2022-11-17T10:35:19.705Z,99154.11
2022-11-17T10:38:09.765Z,99154.84
2022-11-17T10:40:42.798Z,99155.80
2022-11-17T10:43:14.526Z,99151.20
2022-11-17T10:46:07.869Z,99149.75
2022-11-17T10:48:38.934Z,99152.73
2022-11-17T10:51:24.506Z,99148.64
2022-11-17T10:54:19.287Z,99148.69
2022-11-17T10:56:54.789Z,99147.11
2022-11-17T10:59:42.761Z,99146.80
2022-11-17T11:02:39.537Z,99146.64
2022-11-17T11:05:28.248Z,99144.89
2022-11-17T11:08:22.799Z,99141.40
2022-11-17T11:11:53.053Z,99136.63
2022-11-17T11:14:30.686Z,99133.64
2022-11-17T11:16:59.744Z,99131.63
2022-11-17T11:19:29.868Z,99132.58
2022-11-17T11:22:21.600Z,99131.29
2022-11-17T11:25:14.654Z,99135.09
2022-11-17T11:27:58.740Z,99135.02
2022-11-17T11:30:27.675Z,99131.98
2022-11-17T11:33:24.199Z,99137.07
2022-11-17T11:36:04.923Z,99142.81
2022-11-17T11:38:53.123Z,99145.30
2022-11-17T11:41:48.377Z,99146.08
2022-11-17T11:44:41.522Z,99139.27
2022-11-17T11:47:43.323Z,99138.79
2022-11-17T11:50:33.156Z,99145.73
2022-11-17T11:53:17.266Z,99142.35
2022-11-17T11:55:49.896Z,99147.65
2022-11-17T11:58:23.769Z,99144.99
2022-11-17T12:01:03.657Z,99144.44
2022-11-17T12:03:36.714Z,99149.15
2022-11-17T12:06:30.501Z,99150.62
2022-11-17T12:09:24.253Z,99156.33
2022-11-17T12:12:03.599Z,99159.48
2022-11-17T12:14:35.578Z,99162.19
2022-11-17T12:17:13.569Z,99168.89
2022-11-17T12:19:45.249Z,99172.17
2022-11-17T12:22:29.843Z,99167.48
2022-11-17T12:25:08.007Z,99157.94
2022-11-17T12:32:02.191Z,99154.20
2022-11-17T12:34:37.550Z,99151.47
2022-11-17T12:37:20.532Z,99151.58
2022-11-17T12:40:11.703Z,99155.10
2022-11-17T12:43:16.017Z,99160.91
2022-11-17T12:45:54.370Z,99155.77
2022-11-17T12:48:36.814Z,99155.27
2022-11-17T12:51:15.795Z,99153.63
2022-11-17T12:54:17.989Z,99146.49
2022-11-17T12:57:20.411Z,99151.11
2022-11-17T13:00:14.088Z,99147.50
2022-11-17T13:02:54.855Z,99140.73
2022-11-17T13:05:26.479Z,99142.89
2022-11-17T13:08:14.503Z,99138.09
2022-11-17T13:10:42.897Z,99131.83
2022-11-17T13:13:22.509Z,99124.52
2022-11-17T13:15:58.941Z,99117.20
2022-11-17T13:18:40.545Z,99115.72
2022-11-17T13:21:26.960Z,99112.37
2022-11-17T13:23:57.167Z,99111.16
2022-11-17T13:26:38.418Z,99107.84
2022-11-17T13:29:10.557Z,99098.88
2022-11-17T13:31:39.350Z,99098.13
2022-11-17T13:34:07.857Z,99093.19
2022-11-17T13:36:45.963Z,99098.94
2022-11-17T13:39:24.260Z,99097.63
2022-11-17T13:42:24.683Z,99099.42
2022-11-17T13:44:56.498Z,99099.38
2022-11-17T13:47:48.637Z,99099.77
2022-11-17T13:50:34.152Z,99104.23
2022-11-17T13:53:11.093Z,99098.83
2022-11-17T13:55:48.257Z,99091.55
2022-11-17T13:58:31.710Z,99090.48
2022-11-17T14:01:02.095Z,99088.85
2022-11-17T14:03:34.208Z,99086.70
2022-11-17T14:06:09.209Z,99086.98
2022-11-17T14:08:43.993Z,99087.86
2022-11-17T14:11:21.682Z,99084.65
2022-11-17T14:14:01.831Z,99080.92
2022-11-17T14:16:44.003Z,99084.08
2022-11-17T14:19:18.786Z,99083.80
2022-11-17T14:22:09.694Z,99086.61
2022-11-17T14:24:41.757Z,99087.89
2022-11-17T14:27:35.030Z,99084.95
2022-11-17T14:30:10.426Z,99085.27
2022-11-17T14:32:52.435Z,99092.31
2022-11-17T14:35:54.326Z,99099.73
2022-11-17T14:38:23.803Z,99104.54
2022-11-17T14:40:54.104Z,99106.35
2022-11-17T14:43:23.379Z,99104.05
2022-11-17T14:45:52.040Z,99106.89
2022-11-17T14:48:27.167Z,99105.05
2022-11-17T14:50:58.624Z,99107.84
2022-11-17T14:53:31.486Z,99108.44
2022-11-17T14:56:08.552Z,99106.63
2022-11-17T14:58:39.115Z,99110.50
2022-11-17T15:01:16.499Z,99107.29
2022-11-17T15:03:45.786Z,99104.71
2022-11-17T15:06:19.390Z,99104.11
2022-11-17T15:09:02.146Z,99104.34
2022-11-17T15:11:39.606Z,99100.36
2022-11-17T15:14:11.660Z,99098.63
2022-11-17T15:16:40.723Z,99098.13
2022-11-17T15:19:09.502Z,99095.39
2022-11-17T15:21:38.813Z,99094.16
2022-11-17T15:24:09.621Z,99094.90
2022-11-17T15:26:41.893Z,99097.20
2022-11-17T15:29:18.335Z,99099.56
2022-11-17T15:31:47.867Z,99100.39
2022-11-17T15:34:20.640Z,99104.28
2022-11-17T15:36:51.305Z,99101.08
2022-11-17T15:39:21.753Z,99096.46
2022-11-17T15:41:51.856Z,99094.25
2022-11-17T15:44:22.304Z,99097.79
2022-11-17T15:46:51.835Z,99100.20
2022-11-17T15:49:20.625Z,99098.08
2022-11-17T15:51:49.540Z,99091.86
2022-11-17T15:54:20.738Z,99089.01
2022-11-17T15:56:51.235Z,99094.29
2022-11-17T15:59:20.569Z,99093.52
2022-11-17T16:01:50.520Z,99092.84
2022-11-17T16:04:20.994Z,99094.86
2022-11-17T16:06:50.610Z,99086.47
2022-11-17T16:09:21.521Z,99082.70
2022-11-17T16:11:54.398Z,99085.77
2022-11-17T16:14:24.748Z,99090.40
2022-11-17T16:16:54.484Z,99089.14
2022-11-17T16:19:24.033Z,99091.67
2022-11-17T16:21:52.992Z,99090.73
2022-11-17T16:24:22.347Z,99093.02
2022-11-17T16:26:51.574Z,99087.02
2022-11-17T16:29:22.283Z,99079.80
2022-11-17T16:31:51.734Z,99085.85
2022-11-17T16:34:24.781Z,99098.17
2022-11-17T16:36:54.630Z,99102.91
2022-11-17T16:39:24.267Z,99096.95
2022-11-17T16:41:54.776Z,99089.95
2022-11-17T16:44:24.373Z,99084.35
2022-11-17T16:46:53.923Z,99086.34
2022-11-17T16:49:23.798Z,99089.63
2022-11-17T16:51:57.036Z,99089.19
2022-11-17T16:54:25.781Z,99078.98
2022-11-17T16:56:55.253Z,99074.56
2022-11-17T16:59:24.849Z,99076.77
2022-11-17T17:01:53.362Z,99088.77
2022-11-17T17:04:21.799Z,99095.60
2022-11-17T17:06:50.601Z,99096.35
2022-11-17T17:09:24.869Z,99093.46
2022-11-17T17:11:57.925Z,99095.77
2022-11-17T17:14:26.955Z,99103.15
2022-11-17T17:16:56.755Z,99105.97
2022-11-17T17:19:28.863Z,99114.07
2022-11-17T17:21:58.435Z,99117.38
2022-11-17T17:24:31.007Z,99119.74
2022-11-17T17:27:00.212Z,99116.65
2022-11-17T17:29:28.757Z,99111.45
2022-11-17T17:31:57.177Z,99115.11
2022-11-17T17:34:25.878Z,99117.52
2022-11-17T17:36:54.931Z,99116.40
2022-11-17T17:39:23.901Z,99113.55
2022-11-17T17:41:52.559Z,99112.10
2022-11-17T17:44:21.325Z,99113.42
2022-11-17T17:46:50.254Z,99108.05
2022-11-17T17:49:19.716Z,99110.74
2022-11-17T17:51:49.158Z,99108.44
2022-11-17T17:54:20.705Z,99107.63
2022-11-17T17:56:50.255Z,99110.06
2022-11-17T17:59:19.675Z,99093.55
2022-11-17T18:01:50.638Z,99097.41
2022-11-17T18:04:20.092Z,99089.02
2022-11-17T18:06:49.328Z,99084.61
2022-11-17T18:09:21.540Z,99087.50
2022-11-17T18:11:54.668Z,99087.89
2022-11-17T18:14:26.413Z,99088.73
2022-11-17T18:16:55.358Z,99089.10
2022-11-17T18:19:28.422Z,99088.58
2022-11-17T18:22:01.817Z,99087.17
2022-11-17T18:24:30.696Z,99089.00
2022-11-17T18:26:59.685Z,99087.83
2022-11-17T18:29:29.609Z,99084.67
2022-11-17T18:31:59.745Z,99084.96
2022-11-17T18:34:29.785Z,99079.02
2022-11-17T18:37:00.678Z,99080.23
2022-11-17T18:39:32.041Z,99072.36
2022-11-17T18:42:02.234Z,99076.45
2022-11-17T18:44:33.656Z,99076.71
2022-11-17T18:47:03.505Z,99081.24
2022-11-17T18:49:34.734Z,99084.64
2022-11-17T18:52:04.902Z,99083.29
2022-11-17T18:54:34.973Z,99086.06
2022-11-17T18:57:04.113Z,99084.26
2022-11-17T18:59:32.953Z,99084.16
2022-11-17T19:02:01.753Z,99086.27
2022-11-17T19:04:31.704Z,99084.16
2022-11-17T19:07:01.669Z,99081.39
2022-11-17T19:09:32.151Z,99079.15
2022-11-17T19:12:02.635Z,99079.14
2022-11-17T19:14:33.851Z,99076.80
2022-11-17T19:17:04.139Z,99072.64
2022-11-17T19:19:35.385Z,99077.69
2022-11-17T19:22:08.782Z,99077.73
2022-11-17T19:24:41.217Z,99075.75
2022-11-17T19:27:10.918Z,99074.75
2022-11-17T19:29:41.680Z,99074.39
2022-11-17T19:32:11.252Z,99074.13
2022-11-17T19:34:42.232Z,99071.44
2022-11-17T19:37:11.327Z,99069.10
2022-11-17T19:39:40.099Z,99067.13
2022-11-17T19:42:08.966Z,99070.79
2022-11-17T19:44:37.619Z,99074.36
2022-11-17T19:47:06.682Z,99075.67
2022-11-17T19:49:35.601Z,99082.46
2022-11-17T19:52:05.214Z,99083.25
2022-11-17T19:54:33.838Z,99087.77
2022-11-17T19:57:02.974Z,99087.61
2022-11-17T19:59:33.331Z,99084.83
2022-11-17T20:02:02.919Z,99082.73
2022-11-17T20:04:33.336Z,99078.92
2022-11-17T20:07:03.234Z,99076.58
2022-11-17T20:09:32.521Z,99077.16
2022-11-17T20:12:02.051Z,99073.70
2022-11-17T20:14:33.881Z,99072.11
2022-11-17T20:17:03.692Z,99073.06
2022-11-17T20:19:34.148Z,99066.18
2022-11-17T20:22:03.772Z,99068.54
2022-11-17T20:24:32.699Z,99069.36
2022-11-17T20:27:01.854Z,99072.53
2022-11-17T20:29:31.682Z,99071.75
2022-11-17T20:32:01.426Z,99073.65
2022-11-17T20:34:32.523Z,99070.27
2022-11-17T20:37:02.978Z,99067.28
2022-11-17T20:39:32.043Z,99068.46
2022-11-17T20:42:01.930Z,99069.96
2022-11-17T20:44:32.051Z,99069.25
2022-11-17T20:47:01.086Z,99068.25
2022-11-17T20:49:30.611Z,99063.05
2022-11-17T20:51:59.666Z,99067.59
2022-11-17T20:54:29.073Z,99066.77
2022-11-17T20:56:58.232Z,99062.70
2022-11-17T20:59:28.146Z,99049.85
2022-11-17T21:01:57.354Z,99049.94
2022-11-17T21:04:27.261Z,99039.84
2022-11-17T21:06:57.468Z,99037.55
2022-11-17T21:09:26.726Z,99040.35
2022-11-17T21:11:56.789Z,99035.98
2022-11-17T21:14:27.811Z,99023.63
2022-11-17T21:16:58.200Z,99045.63
2022-11-17T21:19:27.985Z,99051.90
2022-11-17T21:21:57.492Z,99046.16
2022-11-17T21:24:28.210Z,99049.46
2022-11-17T21:26:58.196Z,99043.34
2022-11-17T21:29:27.443Z,99045.34
2022-11-17T21:31:56.399Z,99039.98
2022-11-17T21:34:25.390Z,99033.79
2022-11-17T21:36:54.596Z,99033.73
2022-11-17T21:39:23.408Z,99034.52
2022-11-17T21:41:52.680Z,99031.91
2022-11-17T21:44:21.686Z,99028.38
2022-11-17T21:46:50.579Z,99020.32
2022-11-17T21:49:19.859Z,99010.91
2022-11-17T21:51:49.988Z,99008.86
2022-11-17T21:54:20.138Z,99007.13
2022-11-17T21:56:55.793Z,99010.73
2022-11-17T21:59:24.651Z,99008.91
2022-11-17T22:01:56.140Z,99000.24
2022-11-17T22:04:29.176Z,98999.61
2022-11-17T22:07:00.815Z,99002.23
2022-11-17T22:09:33.088Z,99007.70
2022-11-17T22:12:11.282Z,99015.23
2022-11-17T22:14:47.304Z,99015.52
2022-11-17T22:17:18.156Z,99011.55
2022-11-17T22:19:50.050Z,99007.07
2022-11-17T22:22:22.298Z,99005.98
2022-11-17T22:24:53.286Z,99009.66
2022-11-17T22:27:26.446Z,99010.83
2022-11-17T22:29:54.839Z,99004.27
2022-11-17T22:32:23.209Z,99005.94
2022-11-17T22:34:51.496Z,99014.44
2022-11-17T22:37:19.774Z,99022.60
2022-11-17T22:39:48.107Z,99026.89
2022-11-17T22:42:18.811Z,99017.83
2022-11-17T22:44:47.140Z,99015.16
2022-11-17T22:47:16.552Z,99014.33
2022-11-17T22:49:44.896Z,99017.28
2022-11-17T22:52:13.371Z,99022.35
2022-11-17T22:54:41.790Z,99023.21
2022-11-17T22:57:09.902Z,99026.52
2022-11-17T22:59:38.256Z,99027.45
2022-11-17T23:02:07.205Z,99029.56
2022-11-17T23:04:36.773Z,99030.95
2022-11-17T23:07:04.938Z,99034.23
2022-11-17T23:09:33.289Z,99036.24
2022-11-17T23:12:01.604Z,99036.75
2022-11-17T23:14:29.921Z,99037.94
2022-11-17T23:16:58.309Z,99034.08
2022-11-17T23:19:26.498Z,99028.11
2022-11-17T23:21:54.825Z,99026.09
2022-11-17T23:24:23.039Z,99021.09
2022-11-17T23:26:51.450Z,99021.02
2022-11-17T23:29:19.858Z,99026.12
2022-11-17T23:31:48.140Z,99021.35
2022-11-17T23:34:16.918Z,99020.73
2022-11-17T23:36:45.260Z,99021.41
2022-11-17T23:39:13.503Z,99022.70
2022-11-17T23:41:41.735Z,99025.08
2022-11-17T23:44:09.968Z,99022.16
2022-11-17T23:46:38.230Z,99020.35
2022-11-17T23:49:06.492Z,99017.34
2022-11-17T23:51:34.964Z,99016.09
2022-11-17T23:54:03.533Z,99015.77
2022-11-17T23:56:33.766Z,99011.44
2022-11-17T23:59:02.197Z,99005.63
